sensor_id;sensor_type;location;lat;lon;timestamp;P1;durP1;ratioP1;P2;durP2;ratioP2
63945;SDS011;50122;56.330;43.838;2023-05-16T18:40:54;76.57;;;19.08;;
63945;SDS011;50122;56.330;43.838;2023-05-16T18:43:22;76.15;;;19.58;;
63945;SDS011;50122;56.330;43.838;2023-05-16T18:45:50;64.88;;;18.70;;
63945;SDS011;50122;56.330;43.838;2023-05-16T18:48:25;70.32;;;18.88;;
63945;SDS011;50122;56.330;43.838;2023-05-16T18:50:51;67.07;;;19.52;;
63945;SDS011;50122;56.330;43.838;2023-05-16T18:53:18;55.13;;;18.85;;
63945;SDS011;50122;56.330;43.838;2023-05-16T18:55:45;58.45;;;18.52;;
63945;SDS011;50122;56.330;43.838;2023-05-16T18:58:14;62.08;;;18.02;;
63945;SDS011;50122;56.330;43.838;2023-05-16T19:00:41;46.83;;;16.85;;
63945;SDS011;50122;56.330;43.838;2023-05-16T19:03:08;50.88;;;16.88;;
63945;SDS011;50122;56.330;43.838;2023-05-16T19:05:36;57.67;;;17.17;;
63945;SDS011;50122;56.330;43.838;2023-05-16T19:08:03;83.28;;;17.45;;
63945;SDS011;50122;56.330;43.838;2023-05-16T19:10:29;56.03;;;16.15;;
63945;SDS011;50122;56.330;43.838;2023-05-16T19:12:57;73.80;;;17.85;;
63945;SDS011;50122;56.330;43.838;2023-05-16T19:15:35;114.55;;;21.25;;
63945;SDS011;50122;56.330;43.838;2023-05-16T19:18:03;94.25;;;19.17;;
63945;SDS011;50122;56.330;43.838;2023-05-16T19:20:32;81.80;;;18.17;;
63945;SDS011;50122;56.330;43.838;2023-05-16T19:23:00;67.60;;;18.05;;
63945;SDS011;50122;56.330;43.838;2023-05-16T19:25:30;54.58;;;17.35;;
63945;SDS011;50122;56.330;43.838;2023-05-16T19:27:57;52.60;;;16.42;;
63945;SDS011;50122;56.330;43.838;2023-05-16T19:30:27;52.35;;;15.98;;
63945;SDS011;50122;56.330;43.838;2023-05-16T19:32:55;49.55;;;16.27;;
63945;SDS011;50122;56.330;43.838;2023-05-16T19:35:24;47.95;;;15.32;;
63945;SDS011;50122;56.330;43.838;2023-05-16T19:37:51;36.40;;;14.68;;
63945;SDS011;50122;56.330;43.838;2023-05-16T19:40:23;42.92;;;14.38;;
63945;SDS011;50122;56.330;43.838;2023-05-16T19:42:53;37.17;;;13.38;;
63945;SDS011;50122;56.330;43.838;2023-05-16T19:45:20;37.65;;;12.43;;
63945;SDS011;50122;56.330;43.838;2023-05-16T19:47:46;42.45;;;10.85;;
63945;SDS011;50122;56.330;43.838;2023-05-16T19:50:13;37.72;;;10.38;;
63945;SDS011;50122;56.330;43.838;2023-05-16T19:52:40;30.83;;;10.00;;
63945;SDS011;50122;56.330;43.838;2023-05-16T19:55:07;33.53;;;9.57;;
63945;SDS011;50122;56.330;43.838;2023-05-16T19:57:34;33.20;;;9.25;;
63945;SDS011;50122;56.330;43.838;2023-05-16T20:00:02;32.22;;;8.63;;
63945;SDS011;50122;56.330;43.838;2023-05-16T20:02:30;25.15;;;8.70;;
63945;SDS011;50122;56.330;43.838;2023-05-16T20:04:57;32.20;;;9.02;;
63945;SDS011;50122;56.330;43.838;2023-05-16T20:07:28;41.63;;;9.85;;
63945;SDS011;50122;56.330;43.838;2023-05-16T20:09:54;84.82;;;12.63;;
63945;SDS011;50122;56.330;43.838;2023-05-16T20:12:21;45.58;;;10.00;;
63945;SDS011;50122;56.330;43.838;2023-05-16T20:14:48;46.58;;;9.82;;
63945;SDS011;50122;56.330;43.838;2023-05-16T20:17:15;32.63;;;9.05;;
63945;SDS011;50122;56.330;43.838;2023-05-16T20:19:41;25.98;;;9.25;;
63945;SDS011;50122;56.330;43.838;2023-05-16T20:22:12;26.88;;;8.93;;
63945;SDS011;50122;56.330;43.838;2023-05-16T20:24:39;33.97;;;9.20;;
63945;SDS011;50122;56.330;43.838;2023-05-16T20:27:06;24.83;;;9.18;;
63945;SDS011;50122;56.330;43.838;2023-05-16T20:29:32;28.67;;;9.95;;
63945;SDS011;50122;56.330;43.838;2023-05-16T20:31:59;102.03;;;11.60;;
63945;SDS011;50122;56.330;43.838;2023-05-16T20:34:26;118.18;;;12.70;;
63945;SDS011;50122;56.330;43.838;2023-05-16T20:36:54;63.83;;;11.23;;
63945;SDS011;50122;56.330;43.838;2023-05-16T20:39:20;49.42;;;10.02;;
63945;SDS011;50122;56.330;43.838;2023-05-16T20:41:49;26.45;;;9.07;;
63945;SDS011;50122;56.330;43.838;2023-05-16T20:44:19;38.85;;;9.40;;
63945;SDS011;50122;56.330;43.838;2023-05-16T20:46:46;37.35;;;9.70;;
63945;SDS011;50122;56.330;43.838;2023-05-16T20:49:16;21.38;;;8.48;;
63945;SDS011;50122;56.330;43.838;2023-05-16T20:51:43;19.15;;;8.18;;
63945;SDS011;50122;56.330;43.838;2023-05-16T20:54:13;22.10;;;8.55;;
63945;SDS011;50122;56.330;43.838;2023-05-16T20:56:39;22.17;;;8.57;;
63945;SDS011;50122;56.330;43.838;2023-05-16T20:59:06;25.67;;;8.77;;
63945;SDS011;50122;56.330;43.838;2023-05-16T21:01:33;16.67;;;8.13;;
63945;SDS011;50122;56.330;43.838;2023-05-16T21:04:00;28.02;;;8.23;;
63945;SDS011;50122;56.330;43.838;2023-05-16T21:06:27;22.65;;;7.88;;
63945;SDS011;50122;56.330;43.838;2023-05-16T21:08:53;17.20;;;8.13;;
63945;SDS011;50122;56.330;43.838;2023-05-16T21:11:20;23.15;;;8.30;;
63945;SDS011;50122;56.330;43.838;2023-05-16T21:13:47;24.40;;;8.90;;
63945;SDS011;50122;56.330;43.838;2023-05-16T21:16:14;22.23;;;8.65;;
63945;SDS011;50122;56.330;43.838;2023-05-16T21:18:40;22.02;;;8.60;;
63945;SDS011;50122;56.330;43.838;2023-05-16T21:21:08;22.88;;;9.35;;
63945;SDS011;50122;56.330;43.838;2023-05-16T21:23:35;25.13;;;9.98;;
63945;SDS011;50122;56.330;43.838;2023-05-16T21:26:02;26.13;;;10.18;;
63945;SDS011;50122;56.330;43.838;2023-05-16T21:28:28;26.13;;;9.85;;
63945;SDS011;50122;56.330;43.838;2023-05-16T21:30:59;29.02;;;12.07;;
63945;SDS011;50122;56.330;43.838;2023-05-16T21:33:26;26.38;;;11.75;;
63945;SDS011;50122;56.330;43.838;2023-05-16T21:35:54;27.90;;;12.40;;
63945;SDS011;50122;56.330;43.838;2023-05-16T21:38:21;38.58;;;12.43;;
63945;SDS011;50122;56.330;43.838;2023-05-16T21:40:48;31.30;;;13.63;;
63945;SDS011;50122;56.330;43.838;2023-05-16T21:43:17;30.40;;;12.13;;
63945;SDS011;50122;56.330;43.838;2023-05-16T21:45:44;24.42;;;11.73;;
63945;SDS011;50122;56.330;43.838;2023-05-16T21:48:11;27.55;;;12.55;;
63945;SDS011;50122;56.330;43.838;2023-05-16T21:50:38;24.33;;;12.23;;
63945;SDS011;50122;56.330;43.838;2023-05-16T21:53:05;33.22;;;12.98;;
63945;SDS011;50122;56.330;43.838;2023-05-16T21:55:31;30.20;;;11.80;;
63945;SDS011;50122;56.330;43.838;2023-05-16T21:57:58;29.70;;;12.35;;
63945;SDS011;50122;56.330;43.838;2023-05-16T22:00:25;24.80;;;11.95;;
63945;SDS011;50122;56.330;43.838;2023-05-16T22:02:51;26.98;;;12.23;;
63945;SDS011;50122;56.330;43.838;2023-05-16T22:05:20;28.92;;;12.23;;
63945;SDS011;50122;56.330;43.838;2023-05-16T22:07:46;29.05;;;11.80;;
63945;SDS011;50122;56.330;43.838;2023-05-16T22:10:13;28.67;;;12.15;;
63945;SDS011;50122;56.330;43.838;2023-05-16T22:12:42;29.08;;;12.45;;
63945;SDS011;50122;56.330;43.838;2023-05-16T22:15:09;30.15;;;11.88;;
63945;SDS011;50122;56.330;43.838;2023-05-16T22:17:36;27.63;;;12.00;;
63945;SDS011;50122;56.330;43.838;2023-05-16T22:20:03;27.70;;;12.15;;
63945;SDS011;50122;56.330;43.838;2023-05-16T22:22:31;28.73;;;11.88;;
63945;SDS011;50122;56.330;43.838;2023-05-16T22:25:00;27.90;;;10.95;;
63945;SDS011;50122;56.330;43.838;2023-05-16T22:27:28;27.02;;;11.75;;
63945;SDS011;50122;56.330;43.838;2023-05-16T22:29:54;22.10;;;10.98;;
63945;SDS011;50122;56.330;43.838;2023-05-16T22:32:21;24.30;;;10.52;;
63945;SDS011;50122;56.330;43.838;2023-05-16T22:34:48;82.47;;;12.90;;
63945;SDS011;50122;56.330;43.838;2023-05-16T22:37:14;119.93;;;13.95;;
63945;SDS011;50122;56.330;43.838;2023-05-16T22:39:41;46.63;;;11.77;;
63945;SDS011;50122;56.330;43.838;2023-05-16T22:42:08;30.83;;;10.48;;
63945;SDS011;50122;56.330;43.838;2023-05-16T22:44:34;20.95;;;10.23;;
63945;SDS011;50122;56.330;43.838;2023-05-16T22:47:01;22.65;;;10.32;;
63945;SDS011;50122;56.330;43.838;2023-05-16T22:49:28;26.05;;;10.32;;
63945;SDS011;50122;56.330;43.838;2023-05-16T22:51:55;23.75;;;9.85;;
63945;SDS011;50122;56.330;43.838;2023-05-16T22:54:22;23.85;;;9.48;;
63945;SDS011;50122;56.330;43.838;2023-05-16T22:56:48;23.42;;;10.30;;
63945;SDS011;50122;56.330;43.838;2023-05-16T22:59:15;24.75;;;10.52;;
63945;SDS011;50122;56.330;43.838;2023-05-16T23:01:42;23.08;;;10.07;;
63945;SDS011;50122;56.330;43.838;2023-05-16T23:04:13;16.30;;;9.10;;
63945;SDS011;50122;56.330;43.838;2023-05-16T23:06:39;21.70;;;9.60;;
63945;SDS011;50122;56.330;43.838;2023-05-16T23:09:06;23.52;;;9.85;;
63945;SDS011;50122;56.330;43.838;2023-05-16T23:11:34;20.45;;;9.32;;
63945;SDS011;50122;56.330;43.838;2023-05-16T23:14:01;24.60;;;8.98;;
63945;SDS011;50122;56.330;43.838;2023-05-16T23:16:28;22.70;;;9.20;;
63945;SDS011;50122;56.330;43.838;2023-05-16T23:18:54;21.05;;;9.60;;
63945;SDS011;50122;56.330;43.838;2023-05-16T23:21:21;21.77;;;9.68;;
63945;SDS011;50122;56.330;43.838;2023-05-16T23:23:51;22.17;;;9.20;;
63945;SDS011;50122;56.330;43.838;2023-05-16T23:26:17;19.52;;;9.68;;
63945;SDS011;50122;56.330;43.838;2023-05-16T23:28:44;26.10;;;9.70;;
63945;SDS011;50122;56.330;43.838;2023-05-16T23:31:11;21.83;;;9.43;;
63945;SDS011;50122;56.330;43.838;2023-05-16T23:33:37;24.70;;;9.45;;
63945;SDS011;50122;56.330;43.838;2023-05-16T23:36:04;20.88;;;10.52;;
63945;SDS011;50122;56.330;43.838;2023-05-16T23:38:32;19.27;;;9.40;;
63945;SDS011;50122;56.330;43.838;2023-05-16T23:41:01;20.85;;;10.18;;
63945;SDS011;50122;56.330;43.838;2023-05-16T23:43:27;22.80;;;9.48;;
63945;SDS011;50122;56.330;43.838;2023-05-16T23:45:54;24.20;;;9.75;;
63945;SDS011;50122;56.330;43.838;2023-05-16T23:48:21;24.00;;;10.30;;
63945;SDS011;50122;56.330;43.838;2023-05-16T23:50:48;18.90;;;9.25;;
63945;SDS011;50122;56.330;43.838;2023-05-16T23:53:15;21.67;;;9.68;;
63945;SDS011;50122;56.330;43.838;2023-05-16T23:55:42;22.02;;;10.30;;
63945;SDS011;50122;56.330;43.838;2023-05-16T23:58:08;18.35;;;10.02;;
